sensor_id;sensor_type;location;lat;lon;timestamp;P1;durP1;ratioP1;P2;durP2;ratioP2
27722;SDS011;15123;-37.794;175.246;2023-07-13T00:01:02;9.88;;;1.15;;
27722;SDS011;15123;-37.794;175.246;2023-07-13T00:04:28;9.85;;;1.58;;
27722;SDS011;15123;-37.794;175.246;2023-07-13T00:07:53;12.98;;;1.98;;
27722;SDS011;15123;-37.794;175.246;2023-07-13T00:11:18;9.63;;;1.42;;
27722;SDS011;15123;-37.794;175.246;2023-07-13T00:14:43;9.60;;;1.92;;
27722;SDS011;15123;-37.794;175.246;2023-07-13T00:18:08;7.60;;;1.17;;
27722;SDS011;15123;-37.794;175.246;2023-07-13T00:21:26;9.60;;;1.35;;
27722;SDS011;15123;-37.794;175.246;2023-07-13T00:24:45;10.50;;;1.27;;
27722;SDS011;15123;-37.794;175.246;2023-07-13T00:28:10;9.52;;;1.00;;
27722;SDS011;15123;-37.794;175.246;2023-07-13T00:31:35;7.35;;;1.00;;
27722;SDS011;15123;-37.794;175.246;2023-07-13T00:35:01;6.05;;;0.90;;
27722;SDS011;15123;-37.794;175.246;2023-07-13T00:38:26;8.32;;;1.20;;
27722;SDS011;15123;-37.794;175.246;2023-07-13T00:41:51;10.05;;;1.65;;
27722;SDS011;15123;-37.794;175.246;2023-07-13T00:48:43;7.75;;;1.08;;
27722;SDS011;15123;-37.794;175.246;2023-07-13T00:52:10;10.05;;;1.00;;
27722;SDS011;15123;-37.794;175.246;2023-07-13T00:55:35;8.27;;;1.30;;
27722;SDS011;15123;-37.794;175.246;2023-07-13T00:58:59;7.03;;;1.40;;
27722;SDS011;15123;-37.794;175.246;2023-07-13T01:02:24;8.95;;;0.80;;
27722;SDS011;15123;-37.794;175.246;2023-07-13T01:05:51;8.60;;;2.00;;
27722;SDS011;15123;-37.794;175.246;2023-07-13T01:09:16;10.77;;;1.75;;
27722;SDS011;15123;-37.794;175.246;2023-07-13T01:12:40;11.75;;;4.07;;
27722;SDS011;15123;-37.794;175.246;2023-07-13T01:16:11;6.50;;;1.15;;
27722;SDS011;15123;-37.794;175.246;2023-07-13T01:19:41;9.43;;;1.20;;
27722;SDS011;15123;-37.794;175.246;2023-07-13T01:23:02;18.13;;;8.03;;
27722;SDS011;15123;-37.794;175.246;2023-07-13T01:26:24;8.13;;;1.13;;
27722;SDS011;15123;-37.794;175.246;2023-07-13T01:29:49;9.20;;;1.10;;
27722;SDS011;15123;-37.794;175.246;2023-07-13T01:33:19;10.68;;;1.55;;
27722;SDS011;15123;-37.794;175.246;2023-07-13T01:36:44;10.55;;;1.23;;
27722;SDS011;15123;-37.794;175.246;2023-07-13T01:40:11;11.60;;;1.40;;
27722;SDS011;15123;-37.794;175.246;2023-07-13T01:43:36;10.82;;;1.30;;
27722;SDS011;15123;-37.794;175.246;2023-07-13T01:47:01;11.45;;;1.40;;
27722;SDS011;15123;-37.794;175.246;2023-07-13T01:50:26;9.15;;;1.25;;
27722;SDS011;15123;-37.794;175.246;2023-07-13T01:53:51;11.23;;;1.70;;
27722;SDS011;15123;-37.794;175.246;2023-07-13T01:57:15;11.43;;;1.30;;
27722;SDS011;15123;-37.794;175.246;2023-07-13T02:00:40;11.65;;;2.35;;
27722;SDS011;15123;-37.794;175.246;2023-07-13T02:04:05;12.55;;;1.50;;
27722;SDS011;15123;-37.794;175.246;2023-07-13T02:07:29;13.25;;;1.63;;
27722;SDS011;15123;-37.794;175.246;2023-07-13T02:10:54;10.23;;;1.60;;
27722;SDS011;15123;-37.794;175.246;2023-07-13T02:14:19;16.65;;;4.05;;
27722;SDS011;15123;-37.794;175.246;2023-07-13T02:17:43;12.80;;;2.90;;
27722;SDS011;15123;-37.794;175.246;2023-07-13T02:21:27;12.73;;;1.40;;
27722;SDS011;15123;-37.794;175.246;2023-07-13T02:24:46;11.52;;;1.67;;
27722;SDS011;15123;-37.794;175.246;2023-07-13T02:28:05;13.88;;;1.88;;
27722;SDS011;15123;-37.794;175.246;2023-07-13T02:31:30;10.88;;;1.42;;
27722;SDS011;15123;-37.794;175.246;2023-07-13T02:34:56;12.02;;;1.60;;
27722;SDS011;15123;-37.794;175.246;2023-07-13T02:38:21;10.88;;;1.70;;
27722;SDS011;15123;-37.794;175.246;2023-07-13T02:41:45;12.20;;;1.80;;
27722;SDS011;15123;-37.794;175.246;2023-07-13T02:45:11;11.38;;;1.92;;
27722;SDS011;15123;-37.794;175.246;2023-07-13T02:48:35;12.85;;;1.60;;
27722;SDS011;15123;-37.794;175.246;2023-07-13T02:52:01;12.52;;;2.00;;
27722;SDS011;15123;-37.794;175.246;2023-07-13T02:55:26;14.57;;;1.98;;
27722;SDS011;15123;-37.794;175.246;2023-07-13T02:58:51;12.15;;;1.90;;
27722;SDS011;15123;-37.794;175.246;2023-07-13T03:02:15;12.30;;;1.67;;
27722;SDS011;15123;-37.794;175.246;2023-07-13T03:05:40;14.30;;;1.70;;
27722;SDS011;15123;-37.794;175.246;2023-07-13T03:09:15;10.73;;;1.60;;
27722;SDS011;15123;-37.794;175.246;2023-07-13T03:12:41;15.45;;;1.58;;
27722;SDS011;15123;-37.794;175.246;2023-07-13T03:16:05;19.98;;;2.17;;
27722;SDS011;15123;-37.794;175.246;2023-07-13T03:19:33;16.90;;;2.30;;
27722;SDS011;15123;-37.794;175.246;2023-07-13T03:22:58;12.00;;;2.05;;
27722;SDS011;15123;-37.794;175.246;2023-07-13T03:26:18;13.55;;;1.95;;
27722;SDS011;15123;-37.794;175.246;2023-07-13T03:29:38;16.77;;;1.80;;
27722;SDS011;15123;-37.794;175.246;2023-07-13T03:33:03;15.20;;;3.35;;
27722;SDS011;15123;-37.794;175.246;2023-07-13T03:36:29;13.90;;;1.60;;
27722;SDS011;15123;-37.794;175.246;2023-07-13T03:39:55;15.30;;;2.58;;
27722;SDS011;15123;-37.794;175.246;2023-07-13T03:43:20;10.50;;;2.00;;
27722;SDS011;15123;-37.794;175.246;2023-07-13T03:46:46;15.77;;;2.20;;
27722;SDS011;15123;-37.794;175.246;2023-07-13T03:50:11;13.88;;;1.80;;
27722;SDS011;15123;-37.794;175.246;2023-07-13T03:53:40;16.25;;;1.77;;
27722;SDS011;15123;-37.794;175.246;2023-07-13T03:57:05;15.30;;;2.15;;
27722;SDS011;15123;-37.794;175.246;2023-07-13T04:00:32;15.00;;;2.30;;
27722;SDS011;15123;-37.794;175.246;2023-07-13T04:03:57;13.98;;;1.75;;
27722;SDS011;15123;-37.794;175.246;2023-07-13T04:07:21;14.02;;;1.98;;
27722;SDS011;15123;-37.794;175.246;2023-07-13T04:10:45;16.33;;;2.80;;
27722;SDS011;15123;-37.794;175.246;2023-07-13T04:14:09;17.98;;;2.70;;
27722;SDS011;15123;-37.794;175.246;2023-07-13T04:17:34;18.27;;;2.20;;
27722;SDS011;15123;-37.794;175.246;2023-07-13T04:20:58;17.55;;;2.17;;
27722;SDS011;15123;-37.794;175.246;2023-07-13T04:24:23;17.92;;;2.00;;
27722;SDS011;15123;-37.794;175.246;2023-07-13T04:27:41;14.77;;;1.80;;
27722;SDS011;15123;-37.794;175.246;2023-07-13T04:31:00;15.20;;;1.90;;
27722;SDS011;15123;-37.794;175.246;2023-07-13T04:34:25;15.63;;;2.70;;
27722;SDS011;15123;-37.794;175.246;2023-07-13T04:37:51;17.33;;;2.38;;
27722;SDS011;15123;-37.794;175.246;2023-07-13T04:41:16;21.52;;;2.90;;
27722;SDS011;15123;-37.794;175.246;2023-07-13T04:44:40;16.52;;;2.38;;
27722;SDS011;15123;-37.794;175.246;2023-07-13T04:48:05;15.27;;;2.40;;
27722;SDS011;15123;-37.794;175.246;2023-07-13T04:51:30;18.25;;;2.05;;
27722;SDS011;15123;-37.794;175.246;2023-07-13T04:54:55;17.42;;;3.15;;
27722;SDS011;15123;-37.794;175.246;2023-07-13T04:58:19;13.35;;;2.58;;
27722;SDS011;15123;-37.794;175.246;2023-07-13T05:01:44;18.55;;;2.25;;
27722;SDS011;15123;-37.794;175.246;2023-07-13T05:05:09;15.20;;;1.80;;
27722;SDS011;15123;-37.794;175.246;2023-07-13T05:08:34;14.18;;;2.00;;
27722;SDS011;15123;-37.794;175.246;2023-07-13T05:11:59;12.02;;;1.67;;
27722;SDS011;15123;-37.794;175.246;2023-07-13T05:15:24;16.95;;;2.97;;
27722;SDS011;15123;-37.794;175.246;2023-07-13T05:18:49;18.48;;;2.03;;
27722;SDS011;15123;-37.794;175.246;2023-07-13T05:22:13;14.05;;;1.98;;
27722;SDS011;15123;-37.794;175.246;2023-07-13T05:25:37;16.50;;;2.72;;
27722;SDS011;15123;-37.794;175.246;2023-07-13T05:29:01;13.82;;;2.00;;
27722;SDS011;15123;-37.794;175.246;2023-07-13T05:32:25;13.50;;;2.00;;
27722;SDS011;15123;-37.794;175.246;2023-07-13T05:35:50;13.40;;;1.58;;
27722;SDS011;15123;-37.794;175.246;2023-07-13T05:39:17;12.45;;;1.70;;
27722;SDS011;15123;-37.794;175.246;2023-07-13T05:42:42;14.38;;;1.98;;
27722;SDS011;15123;-37.794;175.246;2023-07-13T05:46:07;16.58;;;1.88;;
27722;SDS011;15123;-37.794;175.246;2023-07-13T05:49:38;14.52;;;2.08;;
27722;SDS011;15123;-37.794;175.246;2023-07-13T05:53:05;12.90;;;2.03;;
27722;SDS011;15123;-37.794;175.246;2023-07-13T05:56:30;13.77;;;2.42;;
27722;SDS011;15123;-37.794;175.246;2023-07-13T05:59:54;15.25;;;1.80;;
27722;SDS011;15123;-37.794;175.246;2023-07-13T06:03:19;13.77;;;2.00;;
27722;SDS011;15123;-37.794;175.246;2023-07-13T06:06:43;14.10;;;2.38;;
27722;SDS011;15123;-37.794;175.246;2023-07-13T06:10:07;13.85;;;2.33;;
27722;SDS011;15123;-37.794;175.246;2023-07-13T06:13:41;16.10;;;2.15;;
27722;SDS011;15123;-37.794;175.246;2023-07-13T06:17:07;12.27;;;1.95;;
27722;SDS011;15123;-37.794;175.246;2023-07-13T06:20:33;16.13;;;2.17;;
27722;SDS011;15123;-37.794;175.246;2023-07-13T06:23:57;16.25;;;2.72;;
27722;SDS011;15123;-37.794;175.246;2023-07-13T06:27:21;14.65;;;1.83;;
27722;SDS011;15123;-37.794;175.246;2023-07-13T06:30:45;17.48;;;2.92;;
27722;SDS011;15123;-37.794;175.246;2023-07-13T06:34:09;17.88;;;2.63;;
27722;SDS011;15123;-37.794;175.246;2023-07-13T06:37:34;16.42;;;2.30;;
27722;SDS011;15123;-37.794;175.246;2023-07-13T06:40:59;15.52;;;2.50;;
27722;SDS011;15123;-37.794;175.246;2023-07-13T06:44:23;20.67;;;2.67;;
27722;SDS011;15123;-37.794;175.246;2023-07-13T06:47:47;20.15;;;2.67;;
27722;SDS011;15123;-37.794;175.246;2023-07-13T06:51:12;23.08;;;2.65;;
27722;SDS011;15123;-37.794;175.246;2023-07-13T06:54:37;15.45;;;2.20;;
27722;SDS011;15123;-37.794;175.246;2023-07-13T06:58:01;19.35;;;2.30;;
27722;SDS011;15123;-37.794;175.246;2023-07-13T07:01:25;22.60;;;2.88;;
27722;SDS011;15123;-37.794;175.246;2023-07-13T07:04:50;20.52;;;3.42;;
27722;SDS011;15123;-37.794;175.246;2023-07-13T07:08:15;17.50;;;2.58;;
27722;SDS011;15123;-37.794;175.246;2023-07-13T07:11:39;19.50;;;2.50;;
27722;SDS011;15123;-37.794;175.246;2023-07-13T07:15:11;20.80;;;2.97;;
27722;SDS011;15123;-37.794;175.246;2023-07-13T07:18:35;24.85;;;3.53;;
27722;SDS011;15123;-37.794;175.246;2023-07-13T07:22:00;19.05;;;2.40;;
27722;SDS011;15123;-37.794;175.246;2023-07-13T07:25:25;21.45;;;2.33;;
27722;SDS011;15123;-37.794;175.246;2023-07-13T07:28:54;17.58;;;2.20;;
27722;SDS011;15123;-37.794;175.246;2023-07-13T07:32:21;24.40;;;2.55;;
27722;SDS011;15123;-37.794;175.246;2023-07-13T07:35:49;25.60;;;2.92;;
27722;SDS011;15123;-37.794;175.246;2023-07-13T07:39:16;21.73;;;2.90;;
27722;SDS011;15123;-37.794;175.246;2023-07-13T07:42:41;24.65;;;3.20;;
27722;SDS011;15123;-37.794;175.246;2023-07-13T07:46:05;17.77;;;2.53;;
27722;SDS011;15123;-37.794;175.246;2023-07-13T07:49:30;18.92;;;2.80;;
27722;SDS011;15123;-37.794;175.246;2023-07-13T07:52:57;24.52;;;2.78;;
27722;SDS011;15123;-37.794;175.246;2023-07-13T07:56:24;19.52;;;2.50;;
27722;SDS011;15123;-37.794;175.246;2023-07-13T07:59:51;25.35;;;3.05;;
27722;SDS011;15123;-37.794;175.246;2023-07-13T08:03:18;21.85;;;2.80;;
27722;SDS011;15123;-37.794;175.246;2023-07-13T08:06:46;19.80;;;2.65;;
27722;SDS011;15123;-37.794;175.246;2023-07-13T08:10:13;20.05;;;2.72;;
27722;SDS011;15123;-37.794;175.246;2023-07-13T08:13:37;21.85;;;2.55;;
27722;SDS011;15123;-37.794;175.246;2023-07-13T08:17:04;22.70;;;3.28;;
27722;SDS011;15123;-37.794;175.246;2023-07-13T08:20:29;28.05;;;4.22;;
27722;SDS011;15123;-37.794;175.246;2023-07-13T08:23:54;25.40;;;3.53;;
27722;SDS011;15123;-37.794;175.246;2023-07-13T08:27:20;28.60;;;3.30;;
27722;SDS011;15123;-37.794;175.246;2023-07-13T08:30:45;24.38;;;3.42;;
27722;SDS011;15123;-37.794;175.246;2023-07-13T08:34:09;25.58;;;3.33;;
27722;SDS011;15123;-37.794;175.246;2023-07-13T08:37:34;25.65;;;2.88;;
27722;SDS011;15123;-37.794;175.246;2023-07-13T08:40:58;20.23;;;2.97;;
27722;SDS011;15123;-37.794;175.246;2023-07-13T08:44:27;23.63;;;3.00;;
27722;SDS011;15123;-37.794;175.246;2023-07-13T08:48:25;19.35;;;3.30;;
27722;SDS011;15123;-37.794;175.246;2023-07-13T08:55:20;20.75;;;2.60;;
27722;SDS011;15123;-37.794;175.246;2023-07-13T08:58:48;28.17;;;3.75;;
27722;SDS011;15123;-37.794;175.246;2023-07-13T09:02:28;22.85;;;3.45;;
27722;SDS011;15123;-37.794;175.246;2023-07-13T09:06:14;26.02;;;3.88;;
27722;SDS011;15123;-37.794;175.246;2023-07-13T09:09:55;21.30;;;3.10;;
27722;SDS011;15123;-37.794;175.246;2023-07-13T09:13:43;19.75;;;2.97;;
27722;SDS011;15123;-37.794;175.246;2023-07-13T09:17:40;18.92;;;2.50;;
27722;SDS011;15123;-37.794;175.246;2023-07-13T09:28:26;24.02;;;3.10;;
27722;SDS011;15123;-37.794;175.246;2023-07-13T09:31:53;20.88;;;3.85;;
27722;SDS011;15123;-37.794;175.246;2023-07-13T09:35:15;22.08;;;2.90;;
27722;SDS011;15123;-37.794;175.246;2023-07-13T09:38:37;21.67;;;2.88;;
27722;SDS011;15123;-37.794;175.246;2023-07-13T09:45:35;28.40;;;3.08;;
27722;SDS011;15123;-37.794;175.246;2023-07-13T09:49:01;23.67;;;3.40;;
27722;SDS011;15123;-37.794;175.246;2023-07-13T09:52:25;20.75;;;2.83;;
27722;SDS011;15123;-37.794;175.246;2023-07-13T09:55:51;23.45;;;3.15;;
27722;SDS011;15123;-37.794;175.246;2023-07-13T09:59:20;21.02;;;3.03;;
27722;SDS011;15123;-37.794;175.246;2023-07-13T10:02:45;20.33;;;2.75;;
27722;SDS011;15123;-37.794;175.246;2023-07-13T10:06:18;20.20;;;2.90;;
27722;SDS011;15123;-37.794;175.246;2023-07-13T10:09:43;20.52;;;2.72;;
27722;SDS011;15123;-37.794;175.246;2023-07-13T10:13:20;20.42;;;3.38;;
27722;SDS011;15123;-37.794;175.246;2023-07-13T10:17:00;24.90;;;2.75;;
27722;SDS011;15123;-37.794;175.246;2023-07-13T10:20:26;24.77;;;3.15;;
27722;SDS011;15123;-37.794;175.246;2023-07-13T10:24:25;20.92;;;3.72;;
27722;SDS011;15123;-37.794;175.246;2023-07-13T10:27:44;21.50;;;3.08;;
27722;SDS011;15123;-37.794;175.246;2023-07-13T10:31:12;21.83;;;2.53;;
27722;SDS011;15123;-37.794;175.246;2023-07-13T10:34:37;26.33;;;3.65;;
27722;SDS011;15123;-37.794;175.246;2023-07-13T10:41:19;18.38;;;2.80;;
27722;SDS011;15123;-37.794;175.246;2023-07-13T10:44:45;21.23;;;3.13;;
27722;SDS011;15123;-37.794;175.246;2023-07-13T10:48:10;17.90;;;2.72;;
27722;SDS011;15123;-37.794;175.246;2023-07-13T10:51:36;19.83;;;2.70;;
27722;SDS011;15123;-37.794;175.246;2023-07-13T10:55:02;19.60;;;2.70;;
27722;SDS011;15123;-37.794;175.246;2023-07-13T11:08:53;26.40;;;4.00;;
27722;SDS011;15123;-37.794;175.246;2023-07-13T11:15:49;20.90;;;3.10;;
27722;SDS011;15123;-37.794;175.246;2023-07-13T11:22:43;22.05;;;2.65;;
27722;SDS011;15123;-37.794;175.246;2023-07-13T11:33:49;22.42;;;2.90;;
27722;SDS011;15123;-37.794;175.246;2023-07-13T11:37:15;20.95;;;3.20;;
27722;SDS011;15123;-37.794;175.246;2023-07-13T11:40:40;23.67;;;2.85;;
27722;SDS011;15123;-37.794;175.246;2023-07-13T11:47:43;19.73;;;2.97;;
27722;SDS011;15123;-37.794;175.246;2023-07-13T11:51:10;17.98;;;2.60;;
27722;SDS011;15123;-37.794;175.246;2023-07-13T11:54:52;23.90;;;3.15;;
27722;SDS011;15123;-37.794;175.246;2023-07-13T11:58:20;27.98;;;3.58;;
27722;SDS011;15123;-37.794;175.246;2023-07-13T12:01:49;22.42;;;3.47;;
27722;SDS011;15123;-37.794;175.246;2023-07-13T12:05:17;24.05;;;3.50;;
27722;SDS011;15123;-37.794;175.246;2023-07-13T12:08:42;23.65;;;3.88;;
27722;SDS011;15123;-37.794;175.246;2023-07-13T12:12:10;24.27;;;4.30;;
27722;SDS011;15123;-37.794;175.246;2023-07-13T12:15:45;20.85;;;3.00;;
27722;SDS011;15123;-37.794;175.246;2023-07-13T12:19:30;18.60;;;2.90;;
27722;SDS011;15123;-37.794;175.246;2023-07-13T12:22:56;26.00;;;3.67;;
27722;SDS011;15123;-37.794;175.246;2023-07-13T12:26:21;22.92;;;3.05;;
27722;SDS011;15123;-37.794;175.246;2023-07-13T12:29:51;23.92;;;3.40;;
27722;SDS011;15123;-37.794;175.246;2023-07-13T12:33:23;23.02;;;3.45;;
27722;SDS011;15123;-37.794;175.246;2023-07-13T12:36:54;25.20;;;3.38;;
27722;SDS011;15123;-37.794;175.246;2023-07-13T12:40:24;19.83;;;3.00;;
27722;SDS011;15123;-37.794;175.246;2023-07-13T12:43:56;24.42;;;2.97;;
27722;SDS011;15123;-37.794;175.246;2023-07-13T12:47:20;17.77;;;2.50;;
27722;SDS011;15123;-37.794;175.246;2023-07-13T12:50:48;21.15;;;2.67;;
27722;SDS011;15123;-37.794;175.246;2023-07-13T12:54:13;21.40;;;2.90;;
27722;SDS011;15123;-37.794;175.246;2023-07-13T12:57:44;19.00;;;2.50;;
27722;SDS011;15123;-37.794;175.246;2023-07-13T13:01:17;21.30;;;2.88;;
27722;SDS011;15123;-37.794;175.246;2023-07-13T13:04:42;20.38;;;2.90;;
27722;SDS011;15123;-37.794;175.246;2023-07-13T13:08:08;18.02;;;2.63;;
27722;SDS011;15123;-37.794;175.246;2023-07-13T13:11:34;18.65;;;2.70;;
27722;SDS011;15123;-37.794;175.246;2023-07-13T13:14:59;21.27;;;2.65;;
27722;SDS011;15123;-37.794;175.246;2023-07-13T13:18:25;25.70;;;2.90;;
27722;SDS011;15123;-37.794;175.246;2023-07-13T13:21:49;25.17;;;3.05;;
27722;SDS011;15123;-37.794;175.246;2023-07-13T13:25:16;25.90;;;2.92;;
27722;SDS011;15123;-37.794;175.246;2023-07-13T13:28:40;19.95;;;2.47;;
27722;SDS011;15123;-37.794;175.246;2023-07-13T13:32:09;24.23;;;3.08;;
27722;SDS011;15123;-37.794;175.246;2023-07-13T13:35:37;28.80;;;3.53;;
27722;SDS011;15123;-37.794;175.246;2023-07-13T13:39:01;21.73;;;3.20;;
27722;SDS011;15123;-37.794;175.246;2023-07-13T13:42:25;22.40;;;2.75;;
27722;SDS011;15123;-37.794;175.246;2023-07-13T13:45:45;21.08;;;2.83;;
27722;SDS011;15123;-37.794;175.246;2023-07-13T13:49:04;21.05;;;2.67;;
27722;SDS011;15123;-37.794;175.246;2023-07-13T13:52:29;21.98;;;2.47;;
27722;SDS011;15123;-37.794;175.246;2023-07-13T13:55:53;24.02;;;3.85;;
27722;SDS011;15123;-37.794;175.246;2023-07-13T13:59:18;22.00;;;2.90;;
27722;SDS011;15123;-37.794;175.246;2023-07-13T14:02:46;27.92;;;2.85;;
27722;SDS011;15123;-37.794;175.246;2023-07-13T14:06:13;23.38;;;2.50;;
27722;SDS011;15123;-37.794;175.246;2023-07-13T14:09:38;25.80;;;2.65;;
27722;SDS011;15123;-37.794;175.246;2023-07-13T14:13:02;24.08;;;2.80;;
27722;SDS011;15123;-37.794;175.246;2023-07-13T14:16:28;22.42;;;2.78;;
27722;SDS011;15123;-37.794;175.246;2023-07-13T14:19:53;23.90;;;2.75;;
27722;SDS011;15123;-37.794;175.246;2023-07-13T14:23:21;29.08;;;3.28;;
27722;SDS011;15123;-37.794;175.246;2023-07-13T14:26:47;25.30;;;3.47;;
27722;SDS011;15123;-37.794;175.246;2023-07-13T14:30:18;27.33;;;3.00;;
27722;SDS011;15123;-37.794;175.246;2023-07-13T14:33:44;28.63;;;3.58;;
27722;SDS011;15123;-37.794;175.246;2023-07-13T14:37:11;25.85;;;3.35;;
27722;SDS011;15123;-37.794;175.246;2023-07-13T14:40:38;21.30;;;2.97;;
27722;SDS011;15123;-37.794;175.246;2023-07-13T14:44:13;23.75;;;2.58;;
27722;SDS011;15123;-37.794;175.246;2023-07-13T14:47:32;32.40;;;3.25;;
27722;SDS011;15123;-37.794;175.246;2023-07-13T14:50:53;25.25;;;3.42;;
27722;SDS011;15123;-37.794;175.246;2023-07-13T14:54:19;30.00;;;3.10;;
27722;SDS011;15123;-37.794;175.246;2023-07-13T14:57:44;25.77;;;3.35;;
27722;SDS011;15123;-37.794;175.246;2023-07-13T15:01:17;21.80;;;3.08;;
27722;SDS011;15123;-37.794;175.246;2023-07-13T15:04:42;17.42;;;2.78;;
27722;SDS011;15123;-37.794;175.246;2023-07-13T15:08:07;21.80;;;2.72;;
27722;SDS011;15123;-37.794;175.246;2023-07-13T15:11:32;15.52;;;2.25;;
27722;SDS011;15123;-37.794;175.246;2023-07-13T15:14:58;23.88;;;2.85;;
27722;SDS011;15123;-37.794;175.246;2023-07-13T15:18:23;19.10;;;2.17;;
27722;SDS011;15123;-37.794;175.246;2023-07-13T15:21:50;18.98;;;2.00;;
27722;SDS011;15123;-37.794;175.246;2023-07-13T15:25:16;14.85;;;2.03;;
27722;SDS011;15123;-37.794;175.246;2023-07-13T15:28:43;19.83;;;2.42;;
27722;SDS011;15123;-37.794;175.246;2023-07-13T15:32:13;19.40;;;2.42;;
27722;SDS011;15123;-37.794;175.246;2023-07-13T15:35:38;18.35;;;2.55;;
27722;SDS011;15123;-37.794;175.246;2023-07-13T15:39:05;29.33;;;3.00;;
27722;SDS011;15123;-37.794;175.246;2023-07-13T15:42:31;24.13;;;2.63;;
27722;SDS011;15123;-37.794;175.246;2023-07-13T15:45:56;21.58;;;2.88;;
27722;SDS011;15123;-37.794;175.246;2023-07-13T15:49:15;20.58;;;2.85;;
27722;SDS011;15123;-37.794;175.246;2023-07-13T15:52:33;23.60;;;3.47;;
27722;SDS011;15123;-37.794;175.246;2023-07-13T15:55:58;30.88;;;4.05;;
27722;SDS011;15123;-37.794;175.246;2023-07-13T15:59:24;26.98;;;3.42;;
27722;SDS011;15123;-37.794;175.246;2023-07-13T16:02:49;31.02;;;3.10;;
27722;SDS011;15123;-37.794;175.246;2023-07-13T16:06:15;20.35;;;2.78;;
27722;SDS011;15123;-37.794;175.246;2023-07-13T16:09:44;26.30;;;3.05;;
27722;SDS011;15123;-37.794;175.246;2023-07-13T16:13:15;20.33;;;2.53;;
27722;SDS011;15123;-37.794;175.246;2023-07-13T16:16:40;23.77;;;2.90;;
27722;SDS011;15123;-37.794;175.246;2023-07-13T16:20:08;21.85;;;2.63;;
27722;SDS011;15123;-37.794;175.246;2023-07-13T16:23:33;22.17;;;2.67;;
27722;SDS011;15123;-37.794;175.246;2023-07-13T16:27:11;29.83;;;3.00;;
27722;SDS011;15123;-37.794;175.246;2023-07-13T16:30:36;23.33;;;2.63;;
27722;SDS011;15123;-37.794;175.246;2023-07-13T16:34:00;26.80;;;2.97;;
27722;SDS011;15123;-37.794;175.246;2023-07-13T16:37:28;20.13;;;3.33;;
27722;SDS011;15123;-37.794;175.246;2023-07-13T16:44:33;23.92;;;2.75;;
27722;SDS011;15123;-37.794;175.246;2023-07-13T16:47:58;22.80;;;2.80;;
27722;SDS011;15123;-37.794;175.246;2023-07-13T16:51:18;18.58;;;2.90;;
27722;SDS011;15123;-37.794;175.246;2023-07-13T16:54:36;23.00;;;2.65;;
27722;SDS011;15123;-37.794;175.246;2023-07-13T16:58:01;17.17;;;2.30;;
27722;SDS011;15123;-37.794;175.246;2023-07-13T17:01:27;23.45;;;2.67;;
27722;SDS011;15123;-37.794;175.246;2023-07-13T17:04:53;23.38;;;2.50;;
27722;SDS011;15123;-37.794;175.246;2023-07-13T17:08:21;21.42;;;2.60;;
27722;SDS011;15123;-37.794;175.246;2023-07-13T17:11:45;20.75;;;2.35;;
27722;SDS011;15123;-37.794;175.246;2023-07-13T17:15:09;21.98;;;2.72;;
27722;SDS011;15123;-37.794;175.246;2023-07-13T17:18:33;24.20;;;3.00;;
27722;SDS011;15123;-37.794;175.246;2023-07-13T17:21:57;31.02;;;3.35;;
27722;SDS011;15123;-37.794;175.246;2023-07-13T17:25:26;28.60;;;3.40;;
27722;SDS011;15123;-37.794;175.246;2023-07-13T17:28:51;22.45;;;2.80;;
27722;SDS011;15123;-37.794;175.246;2023-07-13T17:32:16;17.92;;;2.28;;
27722;SDS011;15123;-37.794;175.246;2023-07-13T17:35:43;27.80;;;3.58;;
27722;SDS011;15123;-37.794;175.246;2023-07-13T17:39:16;22.13;;;2.85;;
27722;SDS011;15123;-37.794;175.246;2023-07-13T17:42:40;25.92;;;2.65;;
27722;SDS011;15123;-37.794;175.246;2023-07-13T17:46:10;19.73;;;2.42;;
27722;SDS011;15123;-37.794;175.246;2023-07-13T17:49:35;28.95;;;3.50;;
27722;SDS011;15123;-37.794;175.246;2023-07-13T17:53:02;21.98;;;2.78;;
27722;SDS011;15123;-37.794;175.246;2023-07-13T17:56:39;21.63;;;2.72;;
27722;SDS011;15123;-37.794;175.246;2023-07-13T18:00:03;21.80;;;2.42;;
27722;SDS011;15123;-37.794;175.246;2023-07-13T18:03:43;31.13;;;3.55;;
27722;SDS011;15123;-37.794;175.246;2023-07-13T18:07:13;24.00;;;2.85;;
27722;SDS011;15123;-37.794;175.246;2023-07-13T18:10:43;23.17;;;2.50;;
27722;SDS011;15123;-37.794;175.246;2023-07-13T18:14:07;29.60;;;3.30;;
27722;SDS011;15123;-37.794;175.246;2023-07-13T18:17:32;22.00;;;2.78;;
27722;SDS011;15123;-37.794;175.246;2023-07-13T18:20:56;20.40;;;2.90;;
27722;SDS011;15123;-37.794;175.246;2023-07-13T18:24:23;23.63;;;3.40;;
27722;SDS011;15123;-37.794;175.246;2023-07-13T18:27:47;23.55;;;3.47;;
27722;SDS011;15123;-37.794;175.246;2023-07-13T18:31:12;19.27;;;2.75;;
27722;SDS011;15123;-37.794;175.246;2023-07-13T18:34:40;24.42;;;2.88;;
27722;SDS011;15123;-37.794;175.246;2023-07-13T18:38:14;25.70;;;3.45;;
27722;SDS011;15123;-37.794;175.246;2023-07-13T18:41:44;22.90;;;2.45;;
27722;SDS011;15123;-37.794;175.246;2023-07-13T18:45:10;22.17;;;3.15;;
27722;SDS011;15123;-37.794;175.246;2023-07-13T18:48:34;24.15;;;2.78;;
27722;SDS011;15123;-37.794;175.246;2023-07-13T18:51:59;25.00;;;2.88;;
27722;SDS011;15123;-37.794;175.246;2023-07-13T18:55:19;25.05;;;2.70;;
27722;SDS011;15123;-37.794;175.246;2023-07-13T18:58:38;21.73;;;2.42;;
27722;SDS011;15123;-37.794;175.246;2023-07-13T19:02:13;24.50;;;2.60;;
27722;SDS011;15123;-37.794;175.246;2023-07-13T19:05:38;21.45;;;2.53;;
27722;SDS011;15123;-37.794;175.246;2023-07-13T19:09:09;18.15;;;2.80;;
27722;SDS011;15123;-37.794;175.246;2023-07-13T19:12:34;17.15;;;2.40;;
27722;SDS011;15123;-37.794;175.246;2023-07-13T19:15:58;22.55;;;2.85;;
27722;SDS011;15123;-37.794;175.246;2023-07-13T19:19:23;24.75;;;2.42;;
27722;SDS011;15123;-37.794;175.246;2023-07-13T19:23:36;20.33;;;2.80;;
27722;SDS011;15123;-37.794;175.246;2023-07-13T19:26:42;21.50;;;2.47;;
27722;SDS011;15123;-37.794;175.246;2023-07-13T19:30:11;27.90;;;3.22;;
27722;SDS011;15123;-37.794;175.246;2023-07-13T19:33:35;27.83;;;3.58;;
27722;SDS011;15123;-37.794;175.246;2023-07-13T19:37:01;25.73;;;3.67;;
27722;SDS011;15123;-37.794;175.246;2023-07-13T19:40:27;22.02;;;3.10;;
27722;SDS011;15123;-37.794;175.246;2023-07-13T19:43:52;22.58;;;3.47;;
27722;SDS011;15123;-37.794;175.246;2023-07-13T19:47:17;19.58;;;2.58;;
27722;SDS011;15123;-37.794;175.246;2023-07-13T19:50:42;24.70;;;3.03;;
27722;SDS011;15123;-37.794;175.246;2023-07-13T19:54:11;23.55;;;2.78;;
27722;SDS011;15123;-37.794;175.246;2023-07-13T19:57:37;27.65;;;2.97;;
27722;SDS011;15123;-37.794;175.246;2023-07-13T20:01:02;23.13;;;2.80;;
27722;SDS011;15123;-37.794;175.246;2023-07-13T20:04:27;20.40;;;2.63;;
27722;SDS011;15123;-37.794;175.246;2023-07-13T20:07:55;21.77;;;3.10;;
27722;SDS011;15123;-37.794;175.246;2023-07-13T20:11:20;23.10;;;2.58;;
27722;SDS011;15123;-37.794;175.246;2023-07-13T20:14:44;20.77;;;2.60;;
27722;SDS011;15123;-37.794;175.246;2023-07-13T20:18:11;24.13;;;2.72;;
27722;SDS011;15123;-37.794;175.246;2023-07-13T20:21:36;21.40;;;2.75;;
27722;SDS011;15123;-37.794;175.246;2023-07-13T20:25:00;21.95;;;2.35;;